EDT,Max TemperatureF,Mean TemperatureF,Min TemperatureF,Max Dew PointF,MeanDew PointF,Min DewpointF,Max Humidity, Mean Humidity, Min Humidity, Max Sea Level PressureIn, Mean Sea Level PressureIn, Min Sea Level PressureIn, Max VisibilityMiles, Mean VisibilityMiles, Min VisibilityMiles, Max Wind SpeedMPH, Mean Wind SpeedMPH, Max Gust SpeedMPH,PrecipitationIn, CloudCover, Events, WindDirDegrees
2013-3-1,55,46,37,39,25,1,93,48,19,29.97,29.92,29.87,10,10,10,9,2,,0.00,2,,281
2013-3-2,50,42,35,37,32,5,100,64,28,29.93,29.90,29.85,10,10,7,9,3,20,0.00,5,,260
2013-3-3,50,42,33,34,25,1,87,55,21,30.01,29.96,29.92,10,10,10,12,6,18,0.00,4,,320
2013-3-4,57,42,28,32,17,-15,87,49,5,30.18,30.11,30.02,10,10,10,9,3,21,0.00,0,,299
2013-3-5,68,52,37,52,38,3,93,59,9,30.12,29.94,29.69,10,10,5,16,4,22,0.10,4,,196
2013-3-6,59,50,41,45,12,-17,59,31,5,30.11,29.88,29.69,10,10,10,22,12,32,0.00,1,,291
2013-3-7,60,46,32,32,23,-20,93,53,5,30.23,30.17,30.11,10,10,10,12,5,21,0.00,0,,327
2013-3-8,60,46,33,32,23,-2,87,53,10,30.31,30.25,30.18,10,10,10,14,5,22,0.00,0,,350
2013-3-9,64,48,33,41,29,-13,93,55,5,30.34,30.28,30.23,10,10,10,10,3,16,0.00,0,,14
2013-3-10,69,51,33,46,31,-13,100,54,6,30.30,30.25,30.19,10,10,10,9,2,,0.00,0,,175
2013-3-11,71,56,41,59,47,10,100,64,11,30.23,30.07,29.91,10,10,7,13,3,20,0.00,4,,154
2013-3-12,73,62,51,68,57,30,100,78,36,29.95,29.86,29.80,10,9,2,16,6,28,0.22,4,,216
2013-3-13,64,52,41,41,27,-15,81,48,5,30.14,30.05,29.96,10,10,10,16,5,28,0.00,0,,299
2013-3-14,57,45,33,30,11,-27,81,33,5,30.32,30.23,30.14,10,10,10,14,6,18,0.00,0,,334
2013-3-15,69,50,32,36,23,-13,93,56,5,30.24,30.13,30.01,10,10,7,12,2,20,0.00,0,,199
2013-3-16,80,68,57,37,30,1,44,29,6,30.01,29.93,29.83,10,10,10,20,10,29,0.00,0,,230
2013-3-17,78,69,60,52,40,0,68,42,6,30.02,29.97,29.93,10,10,10,13,8,18,0.00,0,,228
2013-3-18,68,59,50,54,49,25,94,66,24,30.10,30.00,29.85,10,9,4,22,3,39,0.31,6,Thunderstorm,113
2013-3-19,73,62,48,55,45,3,100,72,6,30.02,29.92,29.83,10,8,0,13,3,17,0.13,4,,299
2013-3-20,60,48,37,36,29,-4,87,55,8,30.13,30.00,29.83,10,10,10,10,2,,0.00,1,,22
2013-3-21,59,47,35,36,22,-17,100,44,9,29.97,29.85,29.79,10,10,10,13,4,21,0.00,0,,306
2013-3-22,53,43,33,32,13,-27,65,32,6,30.12,30.05,29.98,10,10,10,8,3,,0.00,3,,357
2013-3-23,51,44,37,46,37,18,93,74,42,30.08,30.00,29.91,10,8,2,10,1,,0.39,6,,43
2013-3-24,55,50,44,54,46,43,94,90,87,29.91,29.65,29.52,10,7,2,13,5,24,1.10,8,Thunderstorm,17
2013-3-25,53,48,42,45,30,18,93,53,28,29.96,29.74,29.59,10,10,7,21,8,37,0.00,3,,271
2013-3-26,51,43,35,32,27,10,87,54,35,30.17,30.03,29.96,10,10,10,14,6,21,0.00,2,,285
2013-3-27,59,46,32,32,26,-17,93,56,5,30.28,30.22,30.18,10,10,10,16,3,22,0.00,0,,306
2013-3-28,60,46,32,32,21,-15,93,51,5,30.32,30.26,30.20,10,10,10,12,3,21,0.00,0,,326
2013-3-29,64,48,32,37,25,-4,93,57,7,30.36,30.29,30.21,10,10,10,9,1,,0.00,1,,261
2013-3-30,71,60,50,48,35,-6,82,53,5,30.26,30.17,30.08,10,10,10,7,1,,0.00,2,,180
2013-3-31,77,66,55,61,51,-2,94,70,5,30.08,29.98,29.87,10,10,3,18,5,28,0.37,4,Thunderstorm,203